Time;durP1;ratioP1;P1;durP2;ratioP2;P2;SDS_P1;SDS_P2;PMS_P1;PMS_P2;Temp;Humidity;BMP_temperature;BMP_pressure;BME280_temperature;BME280_humidity;BME280_pressure;Samples;Min_cycle;Max_cycle;Signal;HPM_P1;HPM_P2
2022/12/23 00:01:49;;;;;;;23.80;13.93;;;9.70;99.90;;;;;;5060859;28;20194;-77
2022/12/23 00:04:17;;;;;;;24.33;14.10;;;9.70;99.90;;;;;;5050474;28;20183;-77
2022/12/23 00:06:43;;;;;;;24.27;14.20;;;9.70;99.90;;;;;;5060934;28;20333;-77
2022/12/23 00:09:11;;;;;;;23.60;13.67;;;9.70;99.90;;;;;;5070284;28;20210;-77
2022/12/23 00:15:03;;;;;;;23.00;14.07;;;9.70;99.90;;;;;;5076504;28;20186;-77
2022/12/23 00:17:10;;;;;;;18.23;12.87;;;9.70;99.90;;;;;;5064954;28;20175;-78
2022/12/23 00:19:37;;;;;;;22.47;13.50;;;9.70;99.90;;;;;;5059141;28;20257;-77
2022/12/23 00:22:03;;;;;;;22.70;13.57;;;9.70;99.90;;;;;;5065528;28;20191;-77
2022/12/23 00:24:29;;;;;;;19.57;13.33;;;9.70;99.90;;;;;;5074619;28;20182;-77
2022/12/23 00:26:56;;;;;;;19.07;12.97;;;9.70;99.90;;;;;;5066523;28;20202;-78
2022/12/23 00:29:23;;;;;;;23.43;13.93;;;9.70;99.90;;;;;;5066318;28;20223;-77
2022/12/23 00:31:49;;;;;;;19.63;13.77;;;9.70;99.90;;;;;;5066243;28;20209;-77
2022/12/23 00:34:16;;;;;;;22.50;14.43;;;9.70;99.90;;;;;;5037170;28;20739;-77
2022/12/23 00:36:42;;;;;;;24.40;13.43;;;9.70;99.90;;;;;;5068967;28;20175;-77
2022/12/23 00:44:41;;;;;;;23.33;13.43;;;9.70;99.90;;;;;;5068526;28;20199;-78
2022/12/23 00:49:40;;;;;;;16.43;13.47;;;9.70;99.90;;;;;;5052384;28;20221;-77
2022/12/23 00:49:53;;;;;;;20.00;12.07;;;9.70;99.90;;;;;;5071054;28;20244;-78
2022/12/23 00:52:20;;;;;;;19.67;12.10;;;9.70;99.90;;;;;;5077045;28;20256;-77
2022/12/23 00:54:47;;;;;;;18.07;12.07;;;9.70;99.90;;;;;;5061043;28;20191;-77
2022/12/23 00:57:13;;;;;;;13.93;10.17;;;9.70;99.90;;;;;;5083039;28;20194;-77
2022/12/23 00:59:39;;;;;;;14.37;10.40;;;9.60;99.90;;;;;;5066706;28;20620;-77
2022/12/23 01:07:37;;;;;;;14.03;9.73;;;9.70;99.90;;;;;;5089894;28;20277;-77
2022/12/23 01:10:05;;;;;;;13.57;10.30;;;9.60;99.90;;;;;;5067666;28;20218;-77
2022/12/23 01:12:31;;;;;;;13.70;9.90;;;9.60;99.90;;;;;;5065122;28;20282;-78
2022/12/23 01:14:57;;;;;;;14.37;10.03;;;9.60;99.90;;;;;;5081398;28;20628;-78
2022/12/23 01:17:25;;;;;;;12.60;9.67;;;9.60;99.90;;;;;;5065693;28;20183;-77
2022/12/23 01:19:53;;;;;;;14.37;9.17;;;9.70;99.90;;;;;;5068573;28;20209;-77
2022/12/23 01:22:20;;;;;;;16.20;10.17;;;9.70;99.90;;;;;;5085932;28;20203;-77
2022/12/23 01:24:46;;;;;;;14.77;9.77;;;9.60;99.90;;;;;;5064571;28;20313;-77
2022/12/23 01:27:12;;;;;;;14.70;10.03;;;9.60;99.90;;;;;;5061822;28;20178;-77
2022/12/23 01:29:39;;;;;;;17.73;10.33;;;9.60;99.90;;;;;;5085049;28;20214;-77
2022/12/23 01:32:05;;;;;;;15.17;10.00;;;9.70;99.90;;;;;;5069479;28;20184;-77
2022/12/23 01:34:32;;;;;;;12.90;10.30;;;9.60;99.90;;;;;;5071345;28;20755;-78
2022/12/23 01:36:58;;;;;;;13.13;10.13;;;9.60;99.90;;;;;;5066687;28;20586;-77
2022/12/23 01:39:24;;;;;;;13.93;9.90;;;9.60;99.90;;;;;;5066401;28;20563;-78
2022/12/23 01:44:58;;;;;;;12.93;9.50;;;9.60;99.90;;;;;;5074098;28;20185;-78
2022/12/23 01:47:45;;;;;;;14.17;9.47;;;9.60;99.90;;;;;;5064053;28;20619;-78
2022/12/23 01:50:34;;;;;;;13.63;9.73;;;9.70;99.90;;;;;;5076631;28;20227;-78
2022/12/23 01:53:08;;;;;;;16.03;9.83;;;9.60;99.90;;;;;;5056735;28;20738;-77
2022/12/23 01:55:52;;;;;;;11.63;9.50;;;9.60;99.90;;;;;;5069224;28;20258;-77
2022/12/23 01:58:30;;;;;;;17.23;10.53;;;9.60;99.90;;;;;;5064404;28;20579;-77
2022/12/23 02:03:48;;;;;;;12.13;9.27;;;9.50;99.90;;;;;;5059275;28;20186;-76
2022/12/23 02:09:17;;;;;;;16.87;10.77;;;9.50;99.90;;;;;;5066460;28;20306;-77
2022/12/23 02:12:14;;;;;;;17.13;11.80;;;9.50;99.90;;;;;;5047805;28;20188;-77
2022/12/23 02:18:14;;;;;;;15.77;11.07;;;9.50;99.90;;;;;;5069577;28;20183;-77
2022/12/23 02:20:57;;;;;;;17.93;11.43;;;9.50;99.90;;;;;;5063776;28;20195;-77
2022/12/23 02:24:12;;;;;;;17.40;11.00;;;9.50;99.90;;;;;;5058036;28;20199;-77
2022/12/23 02:27:21;;;;;;;20.30;11.23;;;9.50;99.90;;;;;;5056634;28;20179;-77
2022/12/23 02:30:21;;;;;;;16.63;11.20;;;9.50;99.90;;;;;;5065337;28;20271;-76
2022/12/23 02:33:37;;;;;;;17.20;10.43;;;9.40;99.90;;;;;;5031760;28;20696;-77
2022/12/23 02:36:21;;;;;;;15.53;11.10;;;9.40;99.90;;;;;;5059416;28;20939;-77
2022/12/23 02:39:08;;;;;;;15.80;11.17;;;9.50;99.90;;;;;;5079283;28;20186;-78
2022/12/23 02:42:14;;;;;;;16.63;10.50;;;9.40;99.90;;;;;;5079772;28;20197;-77
2022/12/23 02:45:32;;;;;;;19.33;11.63;;;9.40;99.90;;;;;;5062570;28;20206;-78
2022/12/23 02:48:20;;;;;;;14.83;10.43;;;9.30;99.90;;;;;;5068006;28;20194;-77
2022/12/23 02:50:50;;;;;;;14.57;10.50;;;9.30;99.90;;;;;;5064592;28;20190;-77
2022/12/23 02:53:38;;;;;;;15.70;9.97;;;9.20;99.90;;;;;;5070980;28;20760;-76
2022/12/23 02:56:09;;;;;;;16.33;10.47;;;9.20;99.90;;;;;;5078061;28;20176;-76
2022/12/23 02:59:05;;;;;;;15.30;10.67;;;9.20;99.90;;;;;;5048700;28;20816;-76
2022/12/23 03:01:34;;;;;;;17.27;10.47;;;9.20;99.90;;;;;;5068791;28;20192;-76
2022/12/23 03:04:00;;;;;;;16.20;10.23;;;9.20;99.90;;;;;;5072438;28;20221;-76
2022/12/23 03:06:34;;;;;;;21.73;11.00;;;9.20;99.90;;;;;;5057668;28;20208;-76
2022/12/23 03:09:01;;;;;;;20.10;10.00;;;9.20;99.90;;;;;;5075619;28;20213;-76
2022/12/23 03:11:57;;;;;;;18.27;10.77;;;9.20;99.90;;;;;;5064575;28;20176;-76
2022/12/23 03:15:14;;;;;;;21.60;11.77;;;9.10;99.90;;;;;;5059413;28;20187;-76
2022/12/23 03:18:17;;;;;;;14.63;11.23;;;9.20;99.90;;;;;;5065761;28;20270;-76
2022/12/23 03:21:02;;;;;;;16.83;11.13;;;9.20;99.90;;;;;;5066149;28;20249;-76
2022/12/23 03:23:39;;;;;;;15.40;10.97;;;9.10;99.90;;;;;;5075153;28;20270;-76
2022/12/23 03:26:41;;;;;;;15.87;11.43;;;9.10;99.90;;;;;;5078998;28;20731;-76
2022/12/23 03:29:37;;;;;;;14.87;11.17;;;9.10;99.90;;;;;;5076149;28;20230;-76
2022/12/23 03:32:06;;;;;;;20.73;12.30;;;9.10;99.90;;;;;;5071097;28;20186;-76
2022/12/23 03:34:41;;;;;;;16.30;11.40;;;9.10;99.90;;;;;;5079721;28;20671;-76
2022/12/23 03:37:12;;;;;;;21.53;12.07;;;9.10;99.90;;;;;;5081122;28;20182;-76
2022/12/23 03:40:00;;;;;;;19.80;12.00;;;9.10;99.90;;;;;;5071798;28;20194;-76
2022/12/23 03:42:38;;;;;;;17.93;11.90;;;9.00;99.90;;;;;;5088459;28;20178;-76
2022/12/23 03:45:26;;;;;;;17.10;11.50;;;9.10;99.90;;;;;;5084147;28;20194;-76
2022/12/23 03:48:01;;;;;;;25.47;12.50;;;9.10;99.90;;;;;;5066829;28;20182;-76
2022/12/23 03:50:31;;;;;;;15.07;11.30;;;9.00;99.90;;;;;;5080075;28;20237;-76
2022/12/23 03:53:03;;;;;;;18.63;11.80;;;9.00;99.90;;;;;;5062395;28;20185;-76
2022/12/23 03:56:03;;;;;;;17.57;12.00;;;9.00;99.90;;;;;;5084051;28;20270;-76
2022/12/23 03:59:11;;;;;;;14.67;11.23;;;9.00;99.90;;;;;;5071249;28;20277;-76
2022/12/23 04:02:31;;;;;;;18.77;12.03;;;9.00;99.90;;;;;;5052794;28;20646;-76
2022/12/23 04:05:30;;;;;;;15.07;11.60;;;9.00;99.90;;;;;;5084276;28;20348;-76
2022/12/23 04:08:21;;;;;;;22.10;12.13;;;8.90;99.90;;;;;;5093767;28;20729;-76
2022/12/23 04:10:49;;;;;;;16.67;12.00;;;8.90;99.90;;;;;;5074953;28;20194;-76
2022/12/23 04:13:15;;;;;;;20.23;12.07;;;8.90;99.90;;;;;;5058459;28;20175;-76
2022/12/23 04:15:42;;;;;;;15.10;11.70;;;8.90;99.90;;;;;;5083252;28;20187;-76
2022/12/23 04:18:10;;;;;;;22.47;11.77;;;9.00;99.90;;;;;;5071821;28;20554;-76
2022/12/23 04:20:36;;;;;;;16.27;11.90;;;9.00;99.90;;;;;;5076452;28;20222;-76
2022/12/23 04:23:03;;;;;;;21.13;11.93;;;9.00;99.90;;;;;;5060805;28;20685;-76
2022/12/23 04:25:29;;;;;;;18.10;11.40;;;9.00;99.90;;;;;;5079986;28;20329;-76
2022/12/23 04:27:56;;;;;;;21.90;12.27;;;8.90;99.90;;;;;;5077322;28;20256;-75
2022/12/23 04:30:23;;;;;;;19.47;12.23;;;8.90;99.90;;;;;;5095196;28;20215;-76
2022/12/23 04:32:49;;;;;;;21.93;12.97;;;8.90;99.90;;;;;;5086385;28;20200;-76
2022/12/23 04:35:16;;;;;;;25.93;12.43;;;8.90;99.90;;;;;;5085055;28;20198;-76
2022/12/23 04:37:42;;;;;;;22.97;12.43;;;8.90;99.90;;;;;;5082784;28;20247;-75
2022/12/23 04:40:09;;;;;;;19.97;12.47;;;8.90;99.90;;;;;;5063560;28;20183;-76
2022/12/23 04:42:35;;;;;;;18.70;12.03;;;9.00;99.90;;;;;;5078377;28;20213;-75
2022/12/23 04:45:02;;;;;;;16.57;11.70;;;9.00;99.90;;;;;;5063738;28;20297;-76
2022/12/23 04:47:28;;;;;;;16.37;12.07;;;9.00;99.90;;;;;;5061249;28;20191;-75
2022/12/23 04:49:55;;;;;;;21.40;12.13;;;9.00;99.90;;;;;;5084310;28;20271;-75
2022/12/23 04:52:22;;;;;;;21.73;13.20;;;8.90;99.90;;;;;;5088674;28;20179;-76
2022/12/23 04:54:48;;;;;;;22.33;13.10;;;9.00;99.90;;;;;;5074596;28;20621;-75
2022/12/23 04:57:15;;;;;;;20.67;11.87;;;9.00;99.90;;;;;;5086352;28;20460;-75
2022/12/23 04:59:41;;;;;;;18.57;11.87;;;9.00;99.90;;;;;;5080625;28;20191;-75
2022/12/23 05:02:09;;;;;;;20.50;12.43;;;8.90;99.90;;;;;;5081534;28;20199;-75
2022/12/23 05:04:36;;;;;;;22.03;12.17;;;9.00;99.90;;;;;;5076707;28;20497;-76
2022/12/23 05:07:02;;;;;;;18.17;12.73;;;9.00;99.90;;;;;;5080227;28;20333;-75
2022/12/23 05:09:29;;;;;;;16.93;12.17;;;9.00;99.90;;;;;;5079517;28;20214;-76
2022/12/23 05:11:56;;;;;;;19.43;12.87;;;9.10;99.90;;;;;;5079063;28;20513;-76
2022/12/23 05:14:22;;;;;;;19.13;13.13;;;9.10;99.90;;;;;;5081246;28;20228;-76
2022/12/23 05:16:48;;;;;;;23.30;13.17;;;9.00;99.90;;;;;;5080035;28;20182;-75
2022/12/23 05:19:15;;;;;;;19.43;13.03;;;9.00;99.90;;;;;;5080158;28;20175;-76
2022/12/23 05:21:41;;;;;;;19.17;13.37;;;9.00;99.90;;;;;;5079186;28;20198;-75
2022/12/23 05:24:07;;;;;;;20.40;12.53;;;9.10;99.90;;;;;;5060361;28;20696;-76
2022/12/23 05:26:34;;;;;;;18.73;12.47;;;9.10;99.90;;;;;;5059227;28;20191;-76
2022/12/23 05:29:01;;;;;;;21.93;13.23;;;9.10;99.90;;;;;;5064562;28;20215;-76
2022/12/23 05:31:28;;;;;;;27.80;13.30;;;9.10;99.90;;;;;;5077424;28;20241;-76
2022/12/23 05:33:56;;;;;;;21.37;13.67;;;9.10;99.90;;;;;;5080266;28;20207;-76
2022/12/23 05:36:23;;;;;;;29.10;13.63;;;9.20;99.90;;;;;;5078563;28;20189;-75
2022/12/23 05:38:49;;;;;;;28.17;13.60;;;9.10;99.90;;;;;;5072156;28;20210;-76
2022/12/23 05:41:16;;;;;;;34.97;13.43;;;9.10;99.90;;;;;;5088951;28;20197;-76
2022/12/23 05:43:42;;;;;;;22.43;12.80;;;9.20;99.90;;;;;;5082651;28;20296;-76
2022/12/23 05:46:09;;;;;;;23.67;14.10;;;9.20;99.90;;;;;;5073288;28;20183;-75
2022/12/23 05:48:36;;;;;;;24.37;13.53;;;9.20;99.90;;;;;;5100952;28;20254;-75
2022/12/23 05:51:02;;;;;;;21.50;12.73;;;9.20;99.90;;;;;;5085521;28;20184;-76
2022/12/23 05:53:29;;;;;;;25.23;14.20;;;9.20;99.90;;;;;;5052222;28;20209;-75
2022/12/23 05:56:07;;;;;;;28.87;12.97;;;9.20;99.90;;;;;;5056033;28;20191;-75
2022/12/23 05:58:33;;;;;;;25.87;13.53;;;9.30;99.90;;;;;;5083901;28;20211;-76
2022/12/23 06:01:02;;;;;;;25.70;14.03;;;9.30;99.90;;;;;;5073728;28;20188;-76
2022/12/23 06:03:28;;;;;;;24.13;13.47;;;9.30;99.90;;;;;;5107574;28;20192;-76
2022/12/23 06:05:55;;;;;;;31.33;13.87;;;9.30;99.90;;;;;;5059566;28;20182;-76
2022/12/23 06:08:22;;;;;;;26.53;14.83;;;9.30;99.90;;;;;;5077695;28;20289;-76
2022/12/23 06:10:49;;;;;;;27.80;13.27;;;9.40;99.90;;;;;;5094254;28;20253;-76
2022/12/23 06:13:15;;;;;;;33.30;15.27;;;9.40;99.90;;;;;;5061099;28;20191;-76
2022/12/23 06:15:41;;;;;;;30.77;16.47;;;9.50;99.90;;;;;;5055683;28;20191;-76
2022/12/23 06:18:08;;;;;;;35.90;15.70;;;9.50;99.90;;;;;;5072198;28;20287;-76
2022/12/23 06:20:34;;;;;;;26.50;15.33;;;9.60;99.90;;;;;;5066658;28;20256;-76
2022/12/23 06:23:01;;;;;;;27.13;16.20;;;9.60;99.90;;;;;;5064514;28;20204;-76
2022/12/23 06:25:27;;;;;;;34.70;15.63;;;9.70;99.90;;;;;;5057525;28;20225;-76
2022/12/23 06:27:54;;;;;;;31.47;15.80;;;9.70;99.90;;;;;;5071891;28;20191;-76
2022/12/23 06:30:20;;;;;;;29.20;15.20;;;9.80;99.90;;;;;;5055865;28;20230;-76
2022/12/23 06:32:47;;;;;;;26.47;16.27;;;9.90;99.90;;;;;;5073042;28;20845;-76
2022/12/23 06:35:13;;;;;;;28.90;16.73;;;10.00;99.90;;;;;;5072901;28;20186;-76
2022/12/23 06:37:40;;;;;;;36.03;15.53;;;10.00;99.90;;;;;;5070143;28;20183;-76
2022/12/23 06:40:08;;;;;;;31.33;17.80;;;10.10;99.90;;;;;;5073107;28;20191;-76
2022/12/23 06:42:34;;;;;;;38.83;16.53;;;10.10;99.90;;;;;;5068505;28;20195;-76
2022/12/23 06:45:00;;;;;;;29.50;16.40;;;10.10;99.90;;;;;;5071659;28;20190;-76
2022/12/23 06:47:27;;;;;;;29.10;17.40;;;10.20;99.90;;;;;;5087578;28;20277;-75
2022/12/23 06:49:54;;;;;;;29.57;17.07;;;10.30;99.90;;;;;;5073052;28;20226;-76
2022/12/23 06:52:21;;;;;;;32.90;18.10;;;10.30;99.90;;;;;;5079457;28;20662;-76
2022/12/23 06:54:48;;;;;;;31.50;16.30;;;10.30;99.90;;;;;;5075332;28;20281;-76
2022/12/23 06:57:14;;;;;;;28.97;16.63;;;10.40;99.90;;;;;;5077210;28;20564;-76
2022/12/23 06:59:40;;;;;;;26.73;16.67;;;10.40;99.90;;;;;;5077510;28;20199;-77
2022/12/23 07:02:10;;;;;;;30.70;17.23;;;10.40;99.90;;;;;;5071352;28;20196;-76
2022/12/23 07:04:36;;;;;;;29.90;15.63;;;10.40;99.90;;;;;;5046965;28;20739;-76
2022/12/23 07:07:03;;;;;;;32.40;16.03;;;10.50;99.90;;;;;;5052176;28;20187;-76
2022/12/23 07:09:30;;;;;;;31.30;16.50;;;10.60;99.90;;;;;;5083566;28;20210;-76
2022/12/23 07:11:56;;;;;;;28.07;16.30;;;10.60;99.90;;;;;;5060155;28;20195;-76
2022/12/23 07:14:23;;;;;;;30.20;18.17;;;10.70;99.90;;;;;;5060248;28;20187;-76
2022/12/23 07:16:50;;;;;;;32.67;16.67;;;10.70;99.90;;;;;;5068866;28;20257;-76
2022/12/23 07:19:16;;;;;;;25.83;17.30;;;10.80;99.90;;;;;;5087655;28;20192;-76
2022/12/23 07:21:45;;;;;;;39.63;18.97;;;10.80;99.90;;;;;;5071354;28;20199;-76
2022/12/23 07:24:11;;;;;;;33.63;17.43;;;10.90;99.90;;;;;;5069771;28;20203;-76
2022/12/23 07:26:37;;;;;;;27.40;16.83;;;10.90;99.90;;;;;;5071865;28;20867;-76
2022/12/23 07:29:04;;;;;;;36.63;17.87;;;10.90;99.90;;;;;;5054796;28;20238;-77
2022/12/23 07:31:30;;;;;;;26.83;16.30;;;11.00;99.90;;;;;;5037639;28;20186;-76
2022/12/23 07:33:57;;;;;;;30.20;17.10;;;11.00;99.90;;;;;;5057282;28;20215;-76
2022/12/23 07:36:23;;;;;;;37.40;19.00;;;11.00;99.90;;;;;;5056668;28;20203;-76
2022/12/23 07:38:51;;;;;;;34.37;19.13;;;11.10;99.90;;;;;;5073310;28;20201;-76
2022/12/23 07:41:18;;;;;;;31.23;18.23;;;11.00;99.90;;;;;;5057576;28;20182;-76
2022/12/23 07:43:45;;;;;;;33.97;17.57;;;11.00;99.90;;;;;;5072980;28;20199;-76
2022/12/23 07:46:11;;;;;;;29.83;18.83;;;11.00;99.90;;;;;;5071043;28;20558;-76
2022/12/23 07:48:40;;;;;;;30.07;18.10;;;11.10;99.90;;;;;;5073142;28;20213;-76
2022/12/23 07:51:07;;;;;;;29.10;17.60;;;11.10;99.90;;;;;;5074934;28;20202;-76
2022/12/23 07:53:33;;;;;;;28.37;18.23;;;11.10;99.90;;;;;;5073387;28;20182;-76
2022/12/23 07:55:59;;;;;;;32.27;17.27;;;11.10;99.90;;;;;;5089799;28;20193;-76
2022/12/23 07:58:26;;;;;;;27.13;16.90;;;11.10;99.90;;;;;;5087334;28;20247;-76
2022/12/23 08:01:06;;;;;;;30.93;17.77;;;11.20;99.90;;;;;;5063633;28;20696;-76
2022/12/23 08:03:33;;;;;;;26.43;17.20;;;11.20;99.90;;;;;;5087989;28;20249;-77
2022/12/23 08:06:03;;;;;;;26.53;18.07;;;11.20;99.90;;;;;;5063964;28;20190;-76
2022/12/23 08:08:31;;;;;;;32.70;17.73;;;11.30;99.90;;;;;;5070614;28;20191;-76
2022/12/23 08:11:04;;;;;;;39.17;20.00;;;11.30;99.90;;;;;;5059974;28;20542;-76
2022/12/23 08:13:34;;;;;;;34.03;18.20;;;11.30;99.90;;;;;;5054637;28;20256;-76
2022/12/23 08:16:03;;;;;;;43.00;20.50;;;11.30;99.90;;;;;;5067601;28;20186;-76
2022/12/23 08:18:32;;;;;;;40.07;18.77;;;11.40;99.90;;;;;;5051946;28;20183;-76
2022/12/23 08:21:18;;;;;;;34.67;19.97;;;11.40;99.90;;;;;;5070102;28;20187;-76
2022/12/23 08:23:46;;;;;;;30.40;20.03;;;11.40;99.90;;;;;;5068567;28;20233;-76
2022/12/23 08:26:19;;;;;;;31.60;20.97;;;11.40;99.90;;;;;;5068669;28;20215;-76
2022/12/23 08:28:47;;;;;;;29.27;19.97;;;11.50;99.90;;;;;;5064246;28;20236;-76
2022/12/23 08:31:27;;;;;;;33.30;19.77;;;11.50;99.90;;;;;;5070856;28;20183;-77
2022/12/23 08:33:56;;;;;;;38.60;21.60;;;11.50;99.90;;;;;;5084007;28;20240;-76
2022/12/23 08:36:30;;;;;;;30.57;20.77;;;11.50;99.90;;;;;;5070765;28;20187;-76
2022/12/23 08:39:00;;;;;;;28.37;19.00;;;11.50;99.90;;;;;;5066360;28;20191;-76
2022/12/23 08:41:32;;;;;;;34.00;19.83;;;11.50;99.90;;;;;;5061979;28;20192;-76
2022/12/23 08:43:58;;;;;;;34.20;19.90;;;11.50;99.90;;;;;;5070135;28;20551;-76
2022/12/23 08:46:25;;;;;;;40.27;21.30;;;11.50;99.90;;;;;;5072498;28;20183;-76
2022/12/23 08:48:52;;;;;;;29.67;20.33;;;11.50;99.90;;;;;;5072995;28;20213;-76
2022/12/23 08:51:21;;;;;;;32.80;21.13;;;11.50;99.90;;;;;;5088243;28;20195;-76
2022/12/23 08:53:49;;;;;;;39.57;22.77;;;11.60;99.90;;;;;;5065816;28;20183;-76
2022/12/23 08:56:22;;;;;;;40.57;22.47;;;11.60;99.90;;;;;;5073496;28;20197;-76
2022/12/23 08:58:52;;;;;;;36.17;23.23;;;11.60;99.90;;;;;;5089956;28;20676;-77
2022/12/23 09:01:21;;;;;;;38.63;23.93;;;11.60;99.90;;;;;;5076006;28;20198;-76
2022/12/23 09:03:48;;;;;;;46.47;24.70;;;11.60;99.90;;;;;;5055648;28;20619;-76
2022/12/23 09:06:21;;;;;;;38.83;24.07;;;11.60;99.90;;;;;;5072493;28;20277;-76
2022/12/23 09:08:48;;;;;;;40.57;24.57;;;11.60;99.90;;;;;;5054704;28;20298;-76
2022/12/23 09:11:24;;;;;;;38.40;21.90;;;11.70;99.90;;;;;;5069491;28;20191;-77
2022/12/23 09:13:51;;;;;;;43.43;23.33;;;11.70;99.90;;;;;;5068825;28;20190;-76
2022/12/23 09:16:19;;;;;;;40.50;23.53;;;11.70;99.90;;;;;;5077978;28;20183;-76
2022/12/23 09:18:45;;;;;;;35.57;22.00;;;11.70;99.90;;;;;;5078394;28;20194;-76
2022/12/23 09:21:19;;;;;;;38.83;22.43;;;11.70;99.90;;;;;;5079775;28;20183;-76
2022/12/23 09:23:46;;;;;;;31.30;20.80;;;11.70;99.90;;;;;;5070806;28;20268;-76
2022/12/23 09:26:27;;;;;;;36.13;22.63;;;11.70;99.90;;;;;;5055534;28;20279;-76
2022/12/23 09:28:54;;;;;;;34.50;21.30;;;11.80;99.90;;;;;;5070823;28;20265;-77
2022/12/23 09:31:21;;;;;;;34.77;22.23;;;11.80;99.90;;;;;;5068939;28;20179;-77
2022/12/23 09:33:51;;;;;;;42.70;22.43;;;11.80;99.90;;;;;;5052453;28;20188;-77
2022/12/23 09:36:18;;;;;;;38.60;22.07;;;11.80;99.90;;;;;;5068738;28;20228;-77
2022/12/23 09:38:47;;;;;;;36.50;22.23;;;11.80;99.90;;;;;;5051344;28;20266;-77
2022/12/23 09:41:49;;;;;;;38.63;22.33;;;11.90;99.90;;;;;;5076514;28;20191;-76
2022/12/23 09:44:25;;;;;;;40.27;21.77;;;11.90;99.90;;;;;;5057508;28;20220;-77
2022/12/23 09:46:59;;;;;;;39.00;23.93;;;11.90;99.90;;;;;;5050129;28;20186;-77
2022/12/23 09:49:27;;;;;;;38.50;22.30;;;11.90;99.90;;;;;;5049830;28;20234;-77
2022/12/23 09:52:02;;;;;;;36.63;22.17;;;11.90;99.90;;;;;;5057949;28;20203;-76
2022/12/23 09:54:44;;;;;;;34.53;22.90;;;12.00;99.90;;;;;;5055663;28;20667;-77
2022/12/23 09:57:40;;;;;;;40.87;24.03;;;12.00;99.90;;;;;;5032341;28;20179;-77
2022/12/23 10:00:13;;;;;;;36.37;24.83;;;12.00;99.90;;;;;;5063354;28;20232;-76
2022/12/23 10:02:55;;;;;;;35.30;22.13;;;12.00;99.90;;;;;;5053058;28;20191;-77
2022/12/23 10:06:01;;;;;;;38.40;23.70;;;12.00;99.90;;;;;;5064135;28;20267;-77
2022/12/23 10:08:39;;;;;;;38.10;23.07;;;12.10;99.90;;;;;;5061598;28;20198;-77
2022/12/23 10:11:36;;;;;;;36.67;23.90;;;12.10;99.90;;;;;;5061466;28;20274;-77
2022/12/23 10:14:29;;;;;;;38.33;24.47;;;12.10;99.90;;;;;;5077079;28;20176;-76
2022/12/23 10:17:11;;;;;;;37.40;24.53;;;12.20;99.90;;;;;;5066800;28;20191;-77
2022/12/23 10:19:47;;;;;;;41.70;23.30;;;12.20;99.90;;;;;;5058494;28;21013;-77
2022/12/23 10:22:57;;;;;;;40.67;23.43;;;12.20;99.90;;;;;;5053576;28;20198;-77
2022/12/23 10:25:42;;;;;;;35.87;23.87;;;12.30;99.90;;;;;;5049388;28;20217;-77
2022/12/23 10:28:10;;;;;;;36.10;23.17;;;12.30;99.90;;;;;;5031507;28;20218;-76
2022/12/23 10:30:41;;;;;;;42.53;23.57;;;12.30;99.90;;;;;;5050073;28;20508;-77
2022/12/23 10:33:29;;;;;;;41.93;23.70;;;12.30;99.90;;;;;;5082542;28;20898;-77
2022/12/23 10:36:21;;;;;;;46.87;25.17;;;12.40;99.90;;;;;;5058717;28;20191;-77
2022/12/23 10:39:07;;;;;;;40.37;25.80;;;12.40;99.90;;;;;;5067593;28;20293;-77
2022/12/23 10:41:59;;;;;;;36.93;24.53;;;12.50;99.90;;;;;;5051110;28;20186;-77
2022/12/23 10:45:21;;;;;;;44.93;24.00;;;12.50;99.90;;;;;;5083676;28;20276;-77
2022/12/23 10:48:32;;;;;;;39.77;24.50;;;12.60;99.90;;;;;;5060586;28;20203;-77
2022/12/23 10:51:16;;;;;;;41.50;23.67;;;12.70;99.90;;;;;;5066553;28;20270;-77
2022/12/23 10:54:13;;;;;;;34.80;22.53;;;12.70;99.90;;;;;;5068277;28;20205;-77
2022/12/23 10:56:40;;;;;;;34.70;22.57;;;12.70;99.90;;;;;;5061069;28;20688;-77
2022/12/23 10:59:12;;;;;;;39.17;24.30;;;12.70;99.90;;;;;;5085051;28;20201;-77
2022/12/23 11:01:42;;;;;;;42.83;23.07;;;12.80;99.90;;;;;;5068580;28;20676;-77
2022/12/23 11:04:18;;;;;;;36.80;22.97;;;12.80;99.90;;;;;;5080665;28;20184;-77
2022/12/23 11:06:51;;;;;;;48.30;24.80;;;12.80;99.90;;;;;;5063775;28;20191;-77
2022/12/23 11:09:26;;;;;;;33.20;22.20;;;12.80;99.90;;;;;;5074719;28;20245;-77
2022/12/23 11:12:07;;;;;;;36.90;23.93;;;12.90;99.90;;;;;;5046797;28;20193;-77
2022/12/23 11:14:55;;;;;;;37.03;22.23;;;12.90;99.90;;;;;;5067441;28;20656;-77
2022/12/23 11:17:33;;;;;;;42.87;24.27;;;12.90;99.90;;;;;;5062326;28;20314;-77
2022/12/23 11:20:17;;;;;;;39.83;23.43;;;13.00;99.90;;;;;;5063336;28;20273;-77
2022/12/23 11:23:01;;;;;;;40.47;24.10;;;13.10;99.90;;;;;;5050507;28;20241;-77
2022/12/23 11:25:43;;;;;;;39.90;24.30;;;13.10;99.90;;;;;;5050229;28;20684;-77
2022/12/23 11:28:20;;;;;;;40.07;23.90;;;13.20;99.90;;;;;;5061584;28;20827;-77
2022/12/23 11:30:57;;;;;;;41.23;23.40;;;13.30;99.90;;;;;;5077487;28;20222;-77
2022/12/23 11:33:31;;;;;;;39.53;24.13;;;13.30;99.90;;;;;;5051020;28;20201;-77
2022/12/23 11:36:18;;;;;;;40.60;23.10;;;13.30;99.90;;;;;;5070536;28;20280;-77
2022/12/23 11:39:20;;;;;;;38.97;23.30;;;13.40;99.90;;;;;;5068347;28;20210;-77
2022/12/23 11:41:52;;;;;;;34.97;23.07;;;13.40;99.90;;;;;;5064482;28;20239;-77
2022/12/23 11:44:39;;;;;;;40.57;23.37;;;13.40;99.90;;;;;;5060256;28;20194;-77
2022/12/23 11:47:22;;;;;;;37.70;22.93;;;13.30;99.90;;;;;;5052990;28;20797;-77
2022/12/23 11:49:51;;;;;;;47.30;23.33;;;13.30;99.90;;;;;;5052294;28;20603;-77
2022/12/23 11:52:21;;;;;;;41.50;24.57;;;13.40;99.90;;;;;;5069754;28;20256;-77
2022/12/23 11:54:58;;;;;;;44.10;23.60;;;13.40;99.90;;;;;;5049160;28;20249;-77
2022/12/23 11:57:42;;;;;;;44.43;22.93;;;13.40;99.90;;;;;;5058049;28;20214;-77
2022/12/23 12:00:24;;;;;;;36.47;22.23;;;13.40;99.90;;;;;;5084606;28;20190;-77
2022/12/23 12:03:02;;;;;;;34.80;23.50;;;13.30;99.90;;;;;;5097269;28;20305;-77
2022/12/23 12:05:37;;;;;;;41.60;23.53;;;13.30;99.90;;;;;;5068943;28;20195;-77
2022/12/23 12:08:13;;;;;;;36.37;23.67;;;13.30;99.90;;;;;;5083480;28;20198;-77
2022/12/23 12:10:41;;;;;;;33.33;22.50;;;13.30;99.90;;;;;;5066390;28;20683;-77
2022/12/23 12:13:30;;;;;;;31.97;22.57;;;13.30;99.90;;;;;;5069567;28;20260;-77
2022/12/23 12:16:13;;;;;;;38.93;22.77;;;13.30;99.90;;;;;;5052338;28;20274;-77
2022/12/23 12:18:43;;;;;;;40.13;23.67;;;13.30;99.90;;;;;;5063876;28;20182;-77
2022/12/23 12:21:27;;;;;;;40.00;23.90;;;13.30;99.90;;;;;;5053678;28;20194;-77
2022/12/23 12:24:04;;;;;;;41.87;23.47;;;13.30;99.90;;;;;;5061386;28;20233;-77
2022/12/23 12:26:37;;;;;;;47.33;25.23;;;13.40;99.90;;;;;;5075189;28;20549;-77
2022/12/23 12:29:41;;;;;;;41.27;25.07;;;13.40;99.90;;;;;;5066624;28;20211;-77
2022/12/23 12:32:46;;;;;;;43.77;24.73;;;13.40;99.90;;;;;;5067184;28;20244;-77
2022/12/23 12:35:30;;;;;;;37.90;24.10;;;13.40;99.90;;;;;;5070958;28;20202;-77
2022/12/23 12:38:24;;;;;;;36.23;24.70;;;13.40;99.90;;;;;;5050839;28;20182;-76
2022/12/23 12:41:00;;;;;;;43.53;25.27;;;13.40;99.90;;;;;;5085706;28;20547;-77
2022/12/23 12:43:39;;;;;;;38.80;24.40;;;13.40;99.90;;;;;;5067431;28;20190;-77
2022/12/23 12:46:26;;;;;;;39.70;23.53;;;13.40;99.90;;;;;;5070867;28;20206;-77
2022/12/23 12:49:17;;;;;;;41.13;23.17;;;13.40;99.90;;;;;;5043787;28;20223;-78
2022/12/23 12:52:14;;;;;;;46.03;25.30;;;13.40;99.90;;;;;;5068780;28;21998;-77
2022/12/23 12:55:05;;;;;;;40.73;24.00;;;13.40;99.90;;;;;;5090659;28;20190;-77
2022/12/23 12:57:36;;;;;;;37.87;23.90;;;13.40;99.90;;;;;;5088786;28;20206;-77
2022/12/23 13:00:05;;;;;;;38.90;24.03;;;13.40;99.90;;;;;;5071544;28;20895;-77
2022/12/23 13:03:21;;;;;;;38.07;22.83;;;13.40;99.90;;;;;;5056174;28;20191;-77
2022/12/23 13:06:28;;;;;;;40.10;23.13;;;13.50;99.90;;;;;;5061598;28;20236;-77
2022/12/23 13:09:18;;;;;;;38.80;23.67;;;13.40;99.90;;;;;;5068211;28;20233;-77
2022/12/23 13:12:21;;;;;;;43.37;23.47;;;13.50;99.90;;;;;;5062044;28;20813;-77
2022/12/23 13:15:12;;;;;;;39.27;24.37;;;13.50;99.90;;;;;;5073302;28;20539;-77
2022/12/23 13:17:50;;;;;;;37.77;22.17;;;13.50;99.90;;;;;;5051544;28;20187;-77
2022/12/23 13:20:37;;;;;;;37.90;22.90;;;13.50;99.90;;;;;;5058561;28;20202;-77
2022/12/23 13:23:21;;;;;;;39.53;23.33;;;13.50;99.90;;;;;;5051356;28;20233;-77
2022/12/23 13:26:02;;;;;;;37.17;24.07;;;13.40;99.90;;;;;;5047684;28;20222;-77
2022/12/23 13:28:43;;;;;;;36.33;23.47;;;13.40;99.90;;;;;;5071998;28;20236;-77
2022/12/23 13:31:42;;;;;;;41.60;23.40;;;13.40;99.90;;;;;;5077253;28;20187;-77
2022/12/23 13:34:40;;;;;;;38.50;23.13;;;13.40;99.90;;;;;;5066091;28;20205;-77
2022/12/23 13:37:36;;;;;;;49.80;23.33;;;13.40;99.90;;;;;;5057851;28;20233;-77
2022/12/23 13:40:25;;;;;;;44.03;23.53;;;13.40;99.90;;;;;;5062024;28;20198;-77
2022/12/23 13:42:58;;;;;;;48.23;24.03;;;13.40;99.90;;;;;;5054974;28;20356;-77